sensor_id;sensor_type;location;lat;lon;timestamp;temperature;humidity
39189;DHT22;24915;50.858;4.376;2022-12-18T00:03:44;-0.90;99.90
39189;DHT22;24915;50.858;4.376;2022-12-18T00:06:09;-0.90;99.90
39189;DHT22;24915;50.858;4.376;2022-12-18T00:08:35;-0.90;99.90
39189;DHT22;24915;50.858;4.376;2022-12-18T00:11:10;-1.00;99.90
39189;DHT22;24915;50.858;4.376;2022-12-18T00:13:35;-1.00;99.90
39189;DHT22;24915;50.858;4.376;2022-12-18T00:16:13;-1.00;99.90
39189;DHT22;24915;50.858;4.376;2022-12-18T00:18:40;-1.00;99.90
39189;DHT22;24915;50.858;4.376;2022-12-18T00:21:07;-1.00;99.90
39189;DHT22;24915;50.858;4.376;2022-12-18T00:23:35;-1.00;99.90
39189;DHT22;24915;50.858;4.376;2022-12-18T00:26:09;-1.00;99.90
39189;DHT22;24915;50.858;4.376;2022-12-18T00:28:36;-1.00;99.90
39189;DHT22;24915;50.858;4.376;2022-12-18T00:31:06;-1.10;99.90
39189;DHT22;24915;50.858;4.376;2022-12-18T00:33:33;-1.10;99.90
39189;DHT22;24915;50.858;4.376;2022-12-18T00:36:07;-1.10;99.90
39189;DHT22;24915;50.858;4.376;2022-12-18T00:38:35;-1.10;99.90
39189;DHT22;24915;50.858;4.376;2022-12-18T00:41:00;-1.20;99.90
39189;DHT22;24915;50.858;4.376;2022-12-18T00:43:26;-1.20;99.90
39189;DHT22;24915;50.858;4.376;2022-12-18T00:45:52;-1.20;99.90
39189;DHT22;24915;50.858;4.376;2022-12-18T00:48:18;-1.20;99.90
39189;DHT22;24915;50.858;4.376;2022-12-18T00:50:44;-1.20;99.90
39189;DHT22;24915;50.858;4.376;2022-12-18T00:53:09;-1.20;99.90
39189;DHT22;24915;50.858;4.376;2022-12-18T00:55:37;-1.20;99.90
39189;DHT22;24915;50.858;4.376;2022-12-18T00:58:03;-1.20;99.90
39189;DHT22;24915;50.858;4.376;2022-12-18T01:00:28;-1.20;99.90
39189;DHT22;24915;50.858;4.376;2022-12-18T01:02:54;-1.20;99.90
39189;DHT22;24915;50.858;4.376;2022-12-18T01:05:20;-1.20;99.90
39189;DHT22;24915;50.858;4.376;2022-12-18T01:07:45;-1.20;99.90
39189;DHT22;24915;50.858;4.376;2022-12-18T01:10:12;-1.20;99.90
39189;DHT22;24915;50.858;4.376;2022-12-18T01:12:38;-1.20;99.90
39189;DHT22;24915;50.858;4.376;2022-12-18T01:15:05;-1.20;99.90
39189;DHT22;24915;50.858;4.376;2022-12-18T01:17:31;-1.20;99.90
39189;DHT22;24915;50.858;4.376;2022-12-18T01:19:57;-1.20;99.90
39189;DHT22;24915;50.858;4.376;2022-12-18T01:22:23;-1.30;99.90
39189;DHT22;24915;50.858;4.376;2022-12-18T01:24:48;-1.30;99.90
39189;DHT22;24915;50.858;4.376;2022-12-18T01:27:14;-1.30;99.90
39189;DHT22;24915;50.858;4.376;2022-12-18T01:29:40;-1.40;99.90
39189;DHT22;24915;50.858;4.376;2022-12-18T01:32:05;-1.40;99.90
39189;DHT22;24915;50.858;4.376;2022-12-18T01:34:31;-1.40;99.90
39189;DHT22;24915;50.858;4.376;2022-12-18T01:36:57;-1.40;99.90
39189;DHT22;24915;50.858;4.376;2022-12-18T01:39:22;-1.40;99.90
39189;DHT22;24915;50.858;4.376;2022-12-18T01:41:48;-1.40;99.90
39189;DHT22;24915;50.858;4.376;2022-12-18T01:50:38;-1.30;99.90
39189;DHT22;24915;50.858;4.376;2022-12-18T01:53:17;-1.30;99.90
39189;DHT22;24915;50.858;4.376;2022-12-18T01:58:10;-1.30;99.90
39189;DHT22;24915;50.858;4.376;2022-12-18T02:00:36;-1.30;99.90
39189;DHT22;24915;50.858;4.376;2022-12-18T02:03:02;-1.40;99.90
39189;DHT22;24915;50.858;4.376;2022-12-18T02:05:47;-1.30;99.90
39189;DHT22;24915;50.858;4.376;2022-12-18T02:08:22;-1.40;99.90
39189;DHT22;24915;50.858;4.376;2022-12-18T02:11:05;-1.30;99.90
39189;DHT22;24915;50.858;4.376;2022-12-18T02:16:27;-1.40;99.90
39189;DHT22;24915;50.858;4.376;2022-12-18T02:19:01;-1.40;99.90
39189;DHT22;24915;50.858;4.376;2022-12-18T02:21:42;-1.40;99.90
39189;DHT22;24915;50.858;4.376;2022-12-18T02:24:17;-1.40;99.90
39189;DHT22;24915;50.858;4.376;2022-12-18T02:26:51;-1.50;99.90
39189;DHT22;24915;50.858;4.376;2022-12-18T02:29:50;-1.50;99.90
39189;DHT22;24915;50.858;4.376;2022-12-18T02:32:27;-1.60;99.90
39189;DHT22;24915;50.858;4.376;2022-12-18T02:34:55;-1.60;99.90
39189;DHT22;24915;50.858;4.376;2022-12-18T02:37:23;-1.70;99.90
39189;DHT22;24915;50.858;4.376;2022-12-18T02:39:52;-1.70;99.90
39189;DHT22;24915;50.858;4.376;2022-12-18T02:42:18;-1.70;99.90
39189;DHT22;24915;50.858;4.376;2022-12-18T02:44:47;-1.70;99.90
39189;DHT22;24915;50.858;4.376;2022-12-18T02:47:16;-1.70;99.90
39189;DHT22;24915;50.858;4.376;2022-12-18T02:49:53;-1.80;99.90
39189;DHT22;24915;50.858;4.376;2022-12-18T02:55:34;-1.80;99.90
39189;DHT22;24915;50.858;4.376;2022-12-18T02:58:14;-1.80;99.90
39189;DHT22;24915;50.858;4.376;2022-12-18T03:00:53;-1.90;99.90
39189;DHT22;24915;50.858;4.376;2022-12-18T03:03:31;-1.90;99.90
39189;DHT22;24915;50.858;4.376;2022-12-18T03:06:10;-1.90;99.90
39189;DHT22;24915;50.858;4.376;2022-12-18T03:08:41;-2.00;99.90
39189;DHT22;24915;50.858;4.376;2022-12-18T03:11:09;-2.00;99.90
39189;DHT22;24915;50.858;4.376;2022-12-18T03:13:45;-2.00;99.90
39189;DHT22;24915;50.858;4.376;2022-12-18T03:16:16;-2.00;99.90
39189;DHT22;24915;50.858;4.376;2022-12-18T03:18:48;-1.90;99.90
39189;DHT22;24915;50.858;4.376;2022-12-18T03:21:16;-1.90;99.90
39189;DHT22;24915;50.858;4.376;2022-12-18T03:23:46;-1.90;99.90
39189;DHT22;24915;50.858;4.376;2022-12-18T03:26:15;-1.90;99.90
39189;DHT22;24915;50.858;4.376;2022-12-18T03:28:46;-1.90;99.90
39189;DHT22;24915;50.858;4.376;2022-12-18T03:31:14;-1.90;99.90
39189;DHT22;24915;50.858;4.376;2022-12-18T03:33:46;-1.90;99.90
39189;DHT22;24915;50.858;4.376;2022-12-18T03:36:12;-2.00;99.90
39189;DHT22;24915;50.858;4.376;2022-12-18T03:38:39;-2.10;99.90
39189;DHT22;24915;50.858;4.376;2022-12-18T03:44:29;-2.10;99.90
39189;DHT22;24915;50.858;4.376;2022-12-18T03:47:13;-2.20;99.90
39189;DHT22;24915;50.858;4.376;2022-12-18T03:49:52;-2.20;99.90
39189;DHT22;24915;50.858;4.376;2022-12-18T03:55:02;-2.20;99.90
39189;DHT22;24915;50.858;4.376;2022-12-18T03:57:31;-2.20;99.90
39189;DHT22;24915;50.858;4.376;2022-12-18T04:00:06;-2.20;99.90
39189;DHT22;24915;50.858;4.376;2022-12-18T04:02:33;-2.20;99.90
39189;DHT22;24915;50.858;4.376;2022-12-18T04:05:01;-2.20;99.90
39189;DHT22;24915;50.858;4.376;2022-12-18T04:07:29;-2.20;99.90
39189;DHT22;24915;50.858;4.376;2022-12-18T04:09:56;-2.20;99.90
39189;DHT22;24915;50.858;4.376;2022-12-18T04:12:25;-2.20;99.90
39189;DHT22;24915;50.858;4.376;2022-12-18T04:14:51;-2.20;99.90
39189;DHT22;24915;50.858;4.376;2022-12-18T04:17:17;-2.20;99.90
39189;DHT22;24915;50.858;4.376;2022-12-18T04:19:43;-2.30;99.90
39189;DHT22;24915;50.858;4.376;2022-12-18T04:22:09;-2.30;99.90
39189;DHT22;24915;50.858;4.376;2022-12-18T04:24:37;-2.30;99.90
39189;DHT22;24915;50.858;4.376;2022-12-18T04:27:04;-2.30;99.90
39189;DHT22;24915;50.858;4.376;2022-12-18T04:29:30;-2.30;99.90
39189;DHT22;24915;50.858;4.376;2022-12-18T04:31:56;-2.30;99.90
39189;DHT22;24915;50.858;4.376;2022-12-18T04:34:21;-2.30;99.90
39189;DHT22;24915;50.858;4.376;2022-12-18T04:36:47;-2.30;99.90
39189;DHT22;24915;50.858;4.376;2022-12-18T04:39:13;-2.30;99.90
39189;DHT22;24915;50.858;4.376;2022-12-18T04:41:39;-2.30;99.90
39189;DHT22;24915;50.858;4.376;2022-12-18T04:44:05;-2.30;99.90
39189;DHT22;24915;50.858;4.376;2022-12-18T04:46:30;-2.30;99.90
39189;DHT22;24915;50.858;4.376;2022-12-18T04:48:56;-2.30;99.90
39189;DHT22;24915;50.858;4.376;2022-12-18T04:51:22;-2.40;99.90
39189;DHT22;24915;50.858;4.376;2022-12-18T04:53:47;-2.30;99.90
39189;DHT22;24915;50.858;4.376;2022-12-18T04:56:15;-2.40;99.90
39189;DHT22;24915;50.858;4.376;2022-12-18T04:58:42;-2.40;99.90
39189;DHT22;24915;50.858;4.376;2022-12-18T05:01:09;-2.30;99.90
39189;DHT22;24915;50.858;4.376;2022-12-18T05:03:36;-2.40;99.90
39189;DHT22;24915;50.858;4.376;2022-12-18T05:06:02;-2.40;99.90
39189;DHT22;24915;50.858;4.376;2022-12-18T05:08:28;-2.40;99.90
39189;DHT22;24915;50.858;4.376;2022-12-18T05:11:05;-2.40;99.90
39189;DHT22;24915;50.858;4.376;2022-12-18T05:13:31;-2.40;99.90
39189;DHT22;24915;50.858;4.376;2022-12-18T05:15:57;-2.40;99.90
39189;DHT22;24915;50.858;4.376;2022-12-18T05:18:23;-2.40;99.90
39189;DHT22;24915;50.858;4.376;2022-12-18T05:20:53;-2.40;99.90
39189;DHT22;24915;50.858;4.376;2022-12-18T05:23:19;-2.40;99.90
39189;DHT22;24915;50.858;4.376;2022-12-18T05:25:54;-2.40;99.90
39189;DHT22;24915;50.858;4.376;2022-12-18T05:28:20;-2.40;99.90
39189;DHT22;24915;50.858;4.376;2022-12-18T05:30:51;-2.40;99.90
39189;DHT22;24915;50.858;4.376;2022-12-18T05:33:21;-2.40;99.90
39189;DHT22;24915;50.858;4.376;2022-12-18T05:35:55;-2.40;99.90
39189;DHT22;24915;50.858;4.376;2022-12-18T05:38:21;-2.50;99.90
39189;DHT22;24915;50.858;4.376;2022-12-18T05:40:48;-2.50;99.90
39189;DHT22;24915;50.858;4.376;2022-12-18T05:43:15;-2.50;99.90
39189;DHT22;24915;50.858;4.376;2022-12-18T05:45:41;-2.50;99.90
39189;DHT22;24915;50.858;4.376;2022-12-18T05:48:08;-2.40;99.90
39189;DHT22;24915;50.858;4.376;2022-12-18T05:50:35;-2.40;99.90
39189;DHT22;24915;50.858;4.376;2022-12-18T05:53:02;-2.50;99.90
39189;DHT22;24915;50.858;4.376;2022-12-18T05:55:28;-2.50;99.90
39189;DHT22;24915;50.858;4.376;2022-12-18T05:57:53;-2.50;99.90
39189;DHT22;24915;50.858;4.376;2022-12-18T06:00:19;-2.50;99.90
39189;DHT22;24915;50.858;4.376;2022-12-18T06:02:48;-2.50;99.90
39189;DHT22;24915;50.858;4.376;2022-12-18T06:05:14;-2.50;99.90
39189;DHT22;24915;50.858;4.376;2022-12-18T06:07:39;-2.50;99.90
39189;DHT22;24915;50.858;4.376;2022-12-18T06:10:06;-2.50;99.90
39189;DHT22;24915;50.858;4.376;2022-12-18T06:12:31;-2.50;99.90
39189;DHT22;24915;50.858;4.376;2022-12-18T06:14:59;-2.40;99.90
39189;DHT22;24915;50.858;4.376;2022-12-18T06:17:31;-2.40;99.90
39189;DHT22;24915;50.858;4.376;2022-12-18T06:19:57;-2.40;99.90
39189;DHT22;24915;50.858;4.376;2022-12-18T06:22:23;-2.40;99.90
39189;DHT22;24915;50.858;4.376;2022-12-18T06:24:49;-2.40;99.90
39189;DHT22;24915;50.858;4.376;2022-12-18T06:27:15;-2.40;99.90
39189;DHT22;24915;50.858;4.376;2022-12-18T06:29:41;-2.40;99.90
39189;DHT22;24915;50.858;4.376;2022-12-18T06:32:07;-2.40;99.90
39189;DHT22;24915;50.858;4.376;2022-12-18T06:34:33;-2.40;99.90
39189;DHT22;24915;50.858;4.376;2022-12-18T06:36:59;-2.50;99.90
39189;DHT22;24915;50.858;4.376;2022-12-18T06:39:27;-2.50;99.90
39189;DHT22;24915;50.858;4.376;2022-12-18T06:41:53;-2.50;99.90
39189;DHT22;24915;50.858;4.376;2022-12-18T06:44:19;-2.50;99.90
39189;DHT22;24915;50.858;4.376;2022-12-18T06:46:45;-2.50;99.90
39189;DHT22;24915;50.858;4.376;2022-12-18T06:49:11;-2.40;99.90
39189;DHT22;24915;50.858;4.376;2022-12-18T06:51:37;-2.40;99.90
39189;DHT22;24915;50.858;4.376;2022-12-18T06:54:03;-2.40;99.90
39189;DHT22;24915;50.858;4.376;2022-12-18T06:56:29;-2.40;99.90
39189;DHT22;24915;50.858;4.376;2022-12-18T06:58:55;-2.50;99.90
39189;DHT22;24915;50.858;4.376;2022-12-18T07:01:20;-2.40;99.90
39189;DHT22;24915;50.858;4.376;2022-12-18T07:03:46;-2.40;99.90
39189;DHT22;24915;50.858;4.376;2022-12-18T07:06:19;-2.40;99.90
39189;DHT22;24915;50.858;4.376;2022-12-18T07:08:46;-2.40;99.90
39189;DHT22;24915;50.858;4.376;2022-12-18T07:11:13;-2.30;99.90
39189;DHT22;24915;50.858;4.376;2022-12-18T07:13:38;-2.30;99.90
39189;DHT22;24915;50.858;4.376;2022-12-18T07:16:24;-2.30;99.90
39189;DHT22;24915;50.858;4.376;2022-12-18T07:18:50;-2.30;99.90
39189;DHT22;24915;50.858;4.376;2022-12-18T07:21:19;-2.30;99.90
39189;DHT22;24915;50.858;4.376;2022-12-18T07:23:44;-2.30;99.90
39189;DHT22;24915;50.858;4.376;2022-12-18T07:26:14;-2.30;99.90
39189;DHT22;24915;50.858;4.376;2022-12-18T07:28:41;-2.30;99.90
39189;DHT22;24915;50.858;4.376;2022-12-18T07:31:10;-2.30;99.90
39189;DHT22;24915;50.858;4.376;2022-12-18T07:33:35;-2.30;99.90
39189;DHT22;24915;50.858;4.376;2022-12-18T07:36:03;-2.30;99.90
39189;DHT22;24915;50.858;4.376;2022-12-18T07:38:29;-2.30;99.90
39189;DHT22;24915;50.858;4.376;2022-12-18T07:40:59;-2.30;99.90
39189;DHT22;24915;50.858;4.376;2022-12-18T07:43:25;-2.30;99.90
39189;DHT22;24915;50.858;4.376;2022-12-18T07:45:51;-2.30;99.90
39189;DHT22;24915;50.858;4.376;2022-12-18T07:48:16;-2.30;99.90
39189;DHT22;24915;50.858;4.376;2022-12-18T07:50:42;-2.30;99.90
39189;DHT22;24915;50.858;4.376;2022-12-18T07:53:07;-2.30;99.90
39189;DHT22;24915;50.858;4.376;2022-12-18T07:55:33;-2.20;99.90
39189;DHT22;24915;50.858;4.376;2022-12-18T07:58:05;-2.20;99.90
39189;DHT22;24915;50.858;4.376;2022-12-18T08:00:31;-2.20;99.90
39189;DHT22;24915;50.858;4.376;2022-12-18T08:02:56;-2.20;99.90
39189;DHT22;24915;50.858;4.376;2022-12-18T08:05:22;-2.10;99.90
39189;DHT22;24915;50.858;4.376;2022-12-18T08:07:49;-2.00;99.90
39189;DHT22;24915;50.858;4.376;2022-12-18T08:10:15;-2.00;99.90
39189;DHT22;24915;50.858;4.376;2022-12-18T08:12:41;-2.00;99.90
39189;DHT22;24915;50.858;4.376;2022-12-18T08:15:07;-1.90;99.90
39189;DHT22;24915;50.858;4.376;2022-12-18T08:17:33;-1.90;99.90
39189;DHT22;24915;50.858;4.376;2022-12-18T08:19:59;-1.80;99.90
39189;DHT22;24915;50.858;4.376;2022-12-18T08:22:25;-1.60;99.90
39189;DHT22;24915;50.858;4.376;2022-12-18T08:24:51;-1.50;99.90
39189;DHT22;24915;50.858;4.376;2022-12-18T08:27:17;-1.40;99.90
39189;DHT22;24915;50.858;4.376;2022-12-18T08:29:43;-1.40;99.90
39189;DHT22;24915;50.858;4.376;2022-12-18T08:32:09;-1.30;99.90
39189;DHT22;24915;50.858;4.376;2022-12-18T08:34:34;-1.20;99.90
39189;DHT22;24915;50.858;4.376;2022-12-18T08:37:00;-1.00;99.90
39189;DHT22;24915;50.858;4.376;2022-12-18T08:39:26;-0.90;99.90
39189;DHT22;24915;50.858;4.376;2022-12-18T08:41:51;-0.80;99.90
39189;DHT22;24915;50.858;4.376;2022-12-18T08:44:36;-0.80;99.90
39189;DHT22;24915;50.858;4.376;2022-12-18T08:47:07;-0.80;99.90
39189;DHT22;24915;50.858;4.376;2022-12-18T08:49:33;-0.80;99.90
39189;DHT22;24915;50.858;4.376;2022-12-18T08:51:59;-0.80;99.90
39189;DHT22;24915;50.858;4.376;2022-12-18T08:54:25;-0.90;99.90
39189;DHT22;24915;50.858;4.376;2022-12-18T08:56:51;-0.80;99.90
39189;DHT22;24915;50.858;4.376;2022-12-18T08:59:18;-0.80;99.90
39189;DHT22;24915;50.858;4.376;2022-12-18T09:01:45;-0.70;99.90
39189;DHT22;24915;50.858;4.376;2022-12-18T09:04:11;-0.70;99.90
39189;DHT22;24915;50.858;4.376;2022-12-18T09:06:37;-0.70;99.90
39189;DHT22;24915;50.858;4.376;2022-12-18T09:09:04;-0.60;99.90
39189;DHT22;24915;50.858;4.376;2022-12-18T09:11:31;-0.50;99.90
39189;DHT22;24915;50.858;4.376;2022-12-18T09:13:58;-0.50;99.90
39189;DHT22;24915;50.858;4.376;2022-12-18T09:16:25;-0.50;99.90
39189;DHT22;24915;50.858;4.376;2022-12-18T09:18:51;-0.50;99.90
39189;DHT22;24915;50.858;4.376;2022-12-18T09:21:20;-0.40;99.90
39189;DHT22;24915;50.858;4.376;2022-12-18T09:23:54;-0.40;99.90
39189;DHT22;24915;50.858;4.376;2022-12-18T09:26:21;-0.50;99.90
39189;DHT22;24915;50.858;4.376;2022-12-18T09:28:47;-0.50;99.90
39189;DHT22;24915;50.858;4.376;2022-12-18T09:31:13;-0.40;99.90
39189;DHT22;24915;50.858;4.376;2022-12-18T09:33:39;-0.40;99.90
39189;DHT22;24915;50.858;4.376;2022-12-18T09:36:07;-0.40;99.90
39189;DHT22;24915;50.858;4.376;2022-12-18T09:38:33;-0.40;99.90
39189;DHT22;24915;50.858;4.376;2022-12-18T09:41:51;-0.40;99.90
39189;DHT22;24915;50.858;4.376;2022-12-18T09:44:00;-0.50;99.90
39189;DHT22;24915;50.858;4.376;2022-12-18T09:46:30;-0.50;99.90
39189;DHT22;24915;50.858;4.376;2022-12-18T09:49:00;-0.50;99.90
39189;DHT22;24915;50.858;4.376;2022-12-18T09:51:33;-0.40;99.90
39189;DHT22;24915;50.858;4.376;2022-12-18T09:54:05;-0.40;99.90
39189;DHT22;24915;50.858;4.376;2022-12-18T09:56:35;-0.30;99.90
39189;DHT22;24915;50.858;4.376;2022-12-18T09:59:03;-0.20;99.90
39189;DHT22;24915;50.858;4.376;2022-12-18T10:01:31;-0.20;99.90
39189;DHT22;24915;50.858;4.376;2022-12-18T10:03:57;-0.20;99.90
39189;DHT22;24915;50.858;4.376;2022-12-18T10:12:07;-0.10;99.90
39189;DHT22;24915;50.858;4.376;2022-12-18T10:14:40;-0.10;99.90
39189;DHT22;24915;50.858;4.376;2022-12-18T10:17:23;-0.10;99.90
39189;DHT22;24915;50.858;4.376;2022-12-18T10:20:13;0.00;99.90
39189;DHT22;24915;50.858;4.376;2022-12-18T10:28:23;0.10;99.90
39189;DHT22;24915;50.858;4.376;2022-12-18T10:30:49;0.10;99.90
39189;DHT22;24915;50.858;4.376;2022-12-18T10:33:21;0.10;99.90
39189;DHT22;24915;50.858;4.376;2022-12-18T10:35:52;0.10;99.90
39189;DHT22;24915;50.858;4.376;2022-12-18T10:43:34;0.20;99.90
39189;DHT22;24915;50.858;4.376;2022-12-18T10:51:20;0.30;99.90
39189;DHT22;24915;50.858;4.376;2022-12-18T10:53:55;0.40;99.90
39189;DHT22;24915;50.858;4.376;2022-12-18T10:56:24;0.40;99.90
39189;DHT22;24915;50.858;4.376;2022-12-18T10:59:02;0.40;99.90
39189;DHT22;24915;50.858;4.376;2022-12-18T11:01:49;0.50;99.90
39189;DHT22;24915;50.858;4.376;2022-12-18T11:07:03;0.50;99.90
39189;DHT22;24915;50.858;4.376;2022-12-18T11:09:30;0.50;99.90
39189;DHT22;24915;50.858;4.376;2022-12-18T11:12:03;0.50;99.90
39189;DHT22;24915;50.858;4.376;2022-12-18T11:14:34;0.50;99.90
39189;DHT22;24915;50.858;4.376;2022-12-18T11:17:00;0.50;99.90
39189;DHT22;24915;50.858;4.376;2022-12-18T11:22:00;0.60;99.90
39189;DHT22;24915;50.858;4.376;2022-12-18T11:26:52;0.70;99.90
39189;DHT22;24915;50.858;4.376;2022-12-18T11:29:23;0.80;99.90
39189;DHT22;24915;50.858;4.376;2022-12-18T11:31:51;0.80;99.90
39189;DHT22;24915;50.858;4.376;2022-12-18T11:34:26;0.80;99.90
39189;DHT22;24915;50.858;4.376;2022-12-18T11:36:54;0.90;99.90
39189;DHT22;24915;50.858;4.376;2022-12-18T11:39:42;0.90;99.90
39189;DHT22;24915;50.858;4.376;2022-12-18T11:42:35;1.00;99.90
39189;DHT22;24915;50.858;4.376;2022-12-18T11:45:30;1.00;99.90
39189;DHT22;24915;50.858;4.376;2022-12-18T11:48:13;1.10;99.90
39189;DHT22;24915;50.858;4.376;2022-12-18T11:53:16;1.20;99.90
39189;DHT22;24915;50.858;4.376;2022-12-18T11:58:42;1.20;99.90
39189;DHT22;24915;50.858;4.376;2022-12-18T12:09:33;1.40;99.90
39189;DHT22;24915;50.858;4.376;2022-12-18T12:15:05;1.30;99.90
39189;DHT22;24915;50.858;4.376;2022-12-18T12:20:52;1.30;99.90
39189;DHT22;24915;50.858;4.376;2022-12-18T12:37:44;1.40;99.90
39189;DHT22;24915;50.858;4.376;2022-12-18T12:40:18;1.40;99.90
39189;DHT22;24915;50.858;4.376;2022-12-18T12:42:50;1.40;99.90
39189;DHT22;24915;50.858;4.376;2022-12-18T12:48:11;1.50;99.90
39189;DHT22;24915;50.858;4.376;2022-12-18T12:50:41;1.50;99.90
39189;DHT22;24915;50.858;4.376;2022-12-18T12:53:21;1.50;99.90
39189;DHT22;24915;50.858;4.376;2022-12-18T12:55:48;1.50;99.90
39189;DHT22;24915;50.858;4.376;2022-12-18T12:58:26;1.60;99.90
39189;DHT22;24915;50.858;4.376;2022-12-18T13:01:16;1.60;99.90
39189;DHT22;24915;50.858;4.376;2022-12-18T13:03:53;1.60;99.90
39189;DHT22;24915;50.858;4.376;2022-12-18T13:06:32;1.60;99.90
39189;DHT22;24915;50.858;4.376;2022-12-18T13:09:01;1.60;99.90
39189;DHT22;24915;50.858;4.376;2022-12-18T13:11:38;1.60;99.90
39189;DHT22;24915;50.858;4.376;2022-12-18T13:14:42;1.60;99.90
39189;DHT22;24915;50.858;4.376;2022-12-18T13:19:50;1.60;99.90
39189;DHT22;24915;50.858;4.376;2022-12-18T13:22:32;1.60;99.90
39189;DHT22;24915;50.858;4.376;2022-12-18T13:28:04;1.70;99.90
39189;DHT22;24915;50.858;4.376;2022-12-18T13:38:44;1.60;99.90
39189;DHT22;24915;50.858;4.376;2022-12-18T13:43:48;1.70;99.90
39189;DHT22;24915;50.858;4.376;2022-12-18T13:46:30;1.60;99.90
39189;DHT22;24915;50.858;4.376;2022-12-18T13:51:50;1.60;99.90
39189;DHT22;24915;50.858;4.376;2022-12-18T13:56:54;1.50;99.90
39189;DHT22;24915;50.858;4.376;2022-12-18T13:59:25;1.60;99.90
39189;DHT22;24915;50.858;4.376;2022-12-18T14:04:27;1.50;99.90
39189;DHT22;24915;50.858;4.376;2022-12-18T14:07:17;1.50;99.90
39189;DHT22;24915;50.858;4.376;2022-12-18T14:09:46;1.50;99.90
39189;DHT22;24915;50.858;4.376;2022-12-18T14:12:22;1.50;99.90
39189;DHT22;24915;50.858;4.376;2022-12-18T14:15:23;1.50;99.90
39189;DHT22;24915;50.858;4.376;2022-12-18T14:17:55;1.50;99.90
39189;DHT22;24915;50.858;4.376;2022-12-18T14:20:22;1.50;99.90
39189;DHT22;24915;50.858;4.376;2022-12-18T14:22:50;1.50;99.90
39189;DHT22;24915;50.858;4.376;2022-12-18T14:25:22;1.50;99.90
39189;DHT22;24915;50.858;4.376;2022-12-18T14:28:02;1.50;99.90
39189;DHT22;24915;50.858;4.376;2022-12-18T14:30:33;1.50;99.90
39189;DHT22;24915;50.858;4.376;2022-12-18T14:33:17;1.40;99.90
39189;DHT22;24915;50.858;4.376;2022-12-18T14:38:39;1.50;99.90
39189;DHT22;24915;50.858;4.376;2022-12-18T14:41:13;1.50;99.90
39189;DHT22;24915;50.858;4.376;2022-12-18T14:43:41;1.40;99.90
39189;DHT22;24915;50.858;4.376;2022-12-18T14:48:52;1.40;99.90
39189;DHT22;24915;50.858;4.376;2022-12-18T14:51:21;1.50;99.90
39189;DHT22;24915;50.858;4.376;2022-12-18T14:54:00;1.50;99.90
39189;DHT22;24915;50.858;4.376;2022-12-18T14:56:30;1.50;99.90
39189;DHT22;24915;50.858;4.376;2022-12-18T14:59:22;1.40;99.90
39189;DHT22;24915;50.858;4.376;2022-12-18T15:02:26;1.40;99.90
39189;DHT22;24915;50.858;4.376;2022-12-18T15:05:30;1.40;99.90
39189;DHT22;24915;50.858;4.376;2022-12-18T15:08:00;1.40;99.90
39189;DHT22;24915;50.858;4.376;2022-12-18T15:10:32;1.40;99.90
39189;DHT22;24915;50.858;4.376;2022-12-18T15:20:56;1.50;99.90
39189;DHT22;24915;50.858;4.376;2022-12-18T15:26:10;1.60;99.90
39189;DHT22;24915;50.858;4.376;2022-12-18T15:28:38;1.60;99.90
39189;DHT22;24915;50.858;4.376;2022-12-18T15:36:21;1.60;99.90
39189;DHT22;24915;50.858;4.376;2022-12-18T15:38:48;1.60;99.90
39189;DHT22;24915;50.858;4.376;2022-12-18T15:41:18;1.60;99.90
39189;DHT22;24915;50.858;4.376;2022-12-18T15:43:45;1.60;99.90
39189;DHT22;24915;50.858;4.376;2022-12-18T15:46:13;1.60;99.90
39189;DHT22;24915;50.858;4.376;2022-12-18T15:48:53;1.60;99.90
39189;DHT22;24915;50.858;4.376;2022-12-18T15:51:37;1.60;99.90
39189;DHT22;24915;50.858;4.376;2022-12-18T15:54:06;1.60;99.90
39189;DHT22;24915;50.858;4.376;2022-12-18T15:56:34;1.60;99.90
39189;DHT22;24915;50.858;4.376;2022-12-18T15:59:19;1.70;99.90
39189;DHT22;24915;50.858;4.376;2022-12-18T16:01:50;1.70;99.90
39189;DHT22;24915;50.858;4.376;2022-12-18T16:04:18;1.60;99.90
39189;DHT22;24915;50.858;4.376;2022-12-18T16:06:46;1.60;99.90
39189;DHT22;24915;50.858;4.376;2022-12-18T16:09:12;1.60;99.90
39189;DHT22;24915;50.858;4.376;2022-12-18T16:11:39;1.60;99.90
39189;DHT22;24915;50.858;4.376;2022-12-18T16:14:30;1.70;99.90
39189;DHT22;24915;50.858;4.376;2022-12-18T16:17:01;1.60;99.90
39189;DHT22;24915;50.858;4.376;2022-12-18T16:19:28;1.70;99.90
39189;DHT22;24915;50.858;4.376;2022-12-18T16:21:55;1.70;99.90
39189;DHT22;24915;50.858;4.376;2022-12-18T16:24:26;1.70;99.90
39189;DHT22;24915;50.858;4.376;2022-12-18T16:26:53;1.70;99.90
39189;DHT22;24915;50.858;4.376;2022-12-18T16:29:22;1.70;99.90
39189;DHT22;24915;50.858;4.376;2022-12-18T16:32:01;1.80;99.90
39189;DHT22;24915;50.858;4.376;2022-12-18T16:34:30;1.70;99.90
39189;DHT22;24915;50.858;4.376;2022-12-18T16:36:57;1.80;99.90
39189;DHT22;24915;50.858;4.376;2022-12-18T16:39:24;1.80;99.90
39189;DHT22;24915;50.858;4.376;2022-12-18T16:41:49;1.80;99.90
39189;DHT22;24915;50.858;4.376;2022-12-18T16:44:15;1.90;99.90
39189;DHT22;24915;50.858;4.376;2022-12-18T16:46:41;1.90;99.90
39189;DHT22;24915;50.858;4.376;2022-12-18T16:49:17;1.90;99.90
39189;DHT22;24915;50.858;4.376;2022-12-18T16:51:43;2.00;99.90
39189;DHT22;24915;50.858;4.376;2022-12-18T16:54:09;2.00;99.90
39189;DHT22;24915;50.858;4.376;2022-12-18T16:56:35;2.00;99.90
39189;DHT22;24915;50.858;4.376;2022-12-18T16:59:02;2.00;99.90
39189;DHT22;24915;50.858;4.376;2022-12-18T17:01:29;2.00;99.90
39189;DHT22;24915;50.858;4.376;2022-12-18T17:03:58;2.00;99.90
39189;DHT22;24915;50.858;4.376;2022-12-18T17:06:24;2.10;99.90
39189;DHT22;24915;50.858;4.376;2022-12-18T17:09:01;2.10;99.90
39189;DHT22;24915;50.858;4.376;2022-12-18T17:11:29;2.10;99.90
39189;DHT22;24915;50.858;4.376;2022-12-18T17:13:56;2.20;99.90
39189;DHT22;24915;50.858;4.376;2022-12-18T17:16:22;2.20;99.90
39189;DHT22;24915;50.858;4.376;2022-12-18T17:18:48;2.20;99.90
39189;DHT22;24915;50.858;4.376;2022-12-18T17:21:15;2.20;99.90
39189;DHT22;24915;50.858;4.376;2022-12-18T17:23:41;2.20;99.90
39189;DHT22;24915;50.858;4.376;2022-12-18T17:26:08;2.20;99.90
39189;DHT22;24915;50.858;4.376;2022-12-18T17:28:35;2.20;99.90
39189;DHT22;24915;50.858;4.376;2022-12-18T17:31:10;2.20;99.90
39189;DHT22;24915;50.858;4.376;2022-12-18T17:33:36;2.30;99.90
39189;DHT22;24915;50.858;4.376;2022-12-18T17:36:01;2.30;99.90
39189;DHT22;24915;50.858;4.376;2022-12-18T17:38:27;2.30;99.90
39189;DHT22;24915;50.858;4.376;2022-12-18T17:40:53;2.30;99.90
39189;DHT22;24915;50.858;4.376;2022-12-18T17:43:18;2.30;99.90
39189;DHT22;24915;50.858;4.376;2022-12-18T17:45:44;2.30;99.90
39189;DHT22;24915;50.858;4.376;2022-12-18T17:48:10;2.20;99.90
39189;DHT22;24915;50.858;4.376;2022-12-18T17:50:36;2.30;99.90
39189;DHT22;24915;50.858;4.376;2022-12-18T17:53:02;2.20;99.90
39189;DHT22;24915;50.858;4.376;2022-12-18T17:55:28;2.20;99.90
39189;DHT22;24915;50.858;4.376;2022-12-18T17:57:54;2.20;99.90
39189;DHT22;24915;50.858;4.376;2022-12-18T18:00:20;2.10;99.90
39189;DHT22;24915;50.858;4.376;2022-12-18T18:02:46;2.10;99.90
39189;DHT22;24915;50.858;4.376;2022-12-18T18:05:12;2.10;99.90
39189;DHT22;24915;50.858;4.376;2022-12-18T18:07:38;2.10;99.90
39189;DHT22;24915;50.858;4.376;2022-12-18T18:10:04;2.00;99.90